Time;durP1;ratioP1;P1;durP2;ratioP2;P2;SDS_P1;SDS_P2;PMS_P1;PMS_P2;Temp;Humidity;BMP_temperature;BMP_pressure;BME280_temperature;BME280_humidity;BME280_pressure;Samples;Min_cycle;Max_cycle;Signal;HPM_P1;HPM_P2
2022/05/22 00:00:50;;;;;;;13.23;6.10;;;22.00;94.00;;;;;;5032637;28;20128;-76
2022/05/22 00:03:18;;;;;;;13.50;5.75;;;21.90;94.60;;;;;;5032624;28;20049;-81
2022/05/22 00:05:46;;;;;;;9.77;5.88;;;22.10;94.50;;;;;;5031641;28;20080;-81
2022/05/22 00:08:14;;;;;;;10.85;5.28;;;22.10;94.60;;;;;;5000766;28;20065;-80
2022/05/22 00:10:41;;;;;;;10.52;5.57;;;22.00;94.90;;;;;;5013248;28;20120;-84
2022/05/22 00:13:08;;;;;;;10.50;5.95;;;21.90;95.40;;;;;;5012920;28;20065;-84
2022/05/22 00:16:35;;;;;;;14.18;5.70;;;21.90;95.50;;;;;;5011279;28;20061;-81
2022/05/22 00:18:26;;;;;;;9.25;5.50;;;21.90;95.70;;;;;;5012437;28;20052;-77
2022/05/22 00:20:53;;;;;;;11.60;6.20;;;21.60;96.60;;;;;;5012881;28;20034;-75
2022/05/22 00:23:20;;;;;;;17.80;6.90;;;21.50;97.20;;;;;;5011211;28;20132;-75
2022/05/22 00:25:50;;;;;;;17.30;6.78;;;21.60;97.30;;;;;;5012512;28;20073;-76
2022/05/22 00:28:17;;;;;;;11.93;5.90;;;21.50;97.40;;;;;;5012138;28;20113;-79
2022/05/22 00:30:44;;;;;;;15.23;6.80;;;21.40;98.00;;;;;;5012095;28;20846;-77
2022/05/22 00:33:13;;;;;;;14.10;6.93;;;21.50;98.20;;;;;;5011170;28;20038;-77
2022/05/22 00:35:41;;;;;;;13.32;6.18;;;21.30;98.60;;;;;;5012316;28;20462;-78
2022/05/22 00:38:08;;;;;;;14.27;6.72;;;21.30;98.80;;;;;;5011979;28;20188;-76
2022/05/22 00:40:36;;;;;;;10.85;6.05;;;21.40;99.00;;;;;;5011177;28;20050;-80
2022/05/22 00:43:06;;;;;;;;;;;21.40;99.10;;;;;;5012015;28;20034;-81
2022/05/22 00:45:33;;;;;;;13.40;6.68;;;21.30;99.40;;;;;;5011777;28;19937;-81
2022/05/22 00:48:01;;;;;;;11.45;6.15;;;21.30;99.60;;;;;;5026963;28;20108;-80
2022/05/22 00:50:28;;;;;;;16.00;6.43;;;21.30;99.60;;;;;;5011778;28;20042;-76
2022/05/22 00:52:58;;;;;;;15.77;6.30;;;21.40;99.60;;;;;;5010134;28;20495;-81
2022/05/22 00:55:33;;;;;;;16.70;6.90;;;21.20;99.90;;;;;;5011197;28;20579;-77
2022/05/22 00:58:10;;;;;;;11.70;6.82;;;21.10;99.90;;;;;;5011373;28;20046;-77
2022/05/22 01:00:38;;;;;;;13.45;6.20;;;21.20;99.90;;;;;;5010841;28;20237;-79
2022/05/22 01:03:28;;;;;;;14.80;5.57;;;21.40;99.70;;;;;;5010744;28;20531;-76
2022/05/22 01:06:01;;;;;;;10.70;5.78;;;21.50;99.00;;;;;;5012081;28;20046;-73
2022/05/22 01:08:29;;;;;;;14.70;6.43;;;21.30;99.90;;;;;;5011851;28;20034;-78
2022/05/22 01:11:07;;;;;;;13.85;6.28;;;21.10;99.90;;;;;;5011782;28;20088;-79
2022/05/22 01:13:42;;;;;;;12.27;6.45;;;20.90;99.90;;;;;;5011047;28;20034;-75
2022/05/22 01:16:17;;;;;;;10.77;6.30;;;21.00;99.90;;;;;;5010449;28;20050;-81
2022/05/22 01:18:52;;;;;;;;;;;20.90;99.90;;;;;;5027581;28;20449;-80
2022/05/22 01:21:25;;;;;;;11.70;6.28;;;20.80;99.90;;;;;;5011416;28;20379;-76
2022/05/22 01:24:14;;;;;;;15.15;5.97;;;20.80;99.90;;;;;;5010147;28;20125;-80
2022/05/22 01:26:46;;;;;;;13.18;6.22;;;20.60;99.90;;;;;;5011648;28;20129;-83
2022/05/22 01:29:13;;;;;;;14.30;5.80;;;20.50;99.90;;;;;;5011609;28;20460;-79
2022/05/22 01:31:44;;;;;;;8.60;6.00;;;20.60;99.90;;;;;;5011813;28;20112;-77
2022/05/22 01:34:12;;;;;;;8.95;6.18;;;20.80;99.90;;;;;;5010268;28;20046;-79
2022/05/22 01:36:40;;;;;;;12.05;5.97;;;21.00;99.90;;;;;;5011707;28;20400;-79
2022/05/22 01:39:07;;;;;;;15.07;8.55;;;21.10;99.90;;;;;;5011726;28;20100;-74
2022/05/22 01:41:35;;;;;;;13.27;5.93;;;21.10;99.90;;;;;;5010274;28;20506;-81
2022/05/22 01:44:06;;;;;;;13.05;6.50;;;20.90;99.90;;;;;;5010012;28;20406;-78
2022/05/22 01:46:36;;;;;;;12.57;6.13;;;20.90;99.90;;;;;;5026732;28;20057;-81
2022/05/22 01:49:03;;;;;;;12.13;6.03;;;20.80;99.90;;;;;;5027057;28;20053;-77
2022/05/22 01:51:38;;;;;;;9.18;6.15;;;20.80;99.90;;;;;;5009989;28;20076;-75
2022/05/22 01:54:06;;;;;;;9.13;6.25;;;20.60;99.90;;;;;;5011278;28;20065;-77
2022/05/22 01:56:35;;;;;;;12.55;6.10;;;20.50;99.90;;;;;;4993531;28;20053;-82
2022/05/22 01:59:04;;;;;;;10.07;6.38;;;20.50;99.90;;;;;;5011154;28;20530;-74
2022/05/22 02:01:32;;;;;;;9.80;5.25;;;20.50;99.90;;;;;;5011385;28;20065;-74
2022/05/22 02:04:00;;;;;;;11.07;5.97;;;20.40;99.90;;;;;;5010001;28;20073;-78
2022/05/22 02:06:27;;;;;;;11.25;5.75;;;20.20;99.90;;;;;;5011025;28;20507;-76
2022/05/22 02:08:54;;;;;;;10.65;6.03;;;20.30;99.90;;;;;;5010897;28;20505;-76
2022/05/22 02:11:22;;;;;;;12.32;5.72;;;20.30;99.90;;;;;;5010930;28;20073;-78
2022/05/22 02:13:50;;;;;;;11.18;5.78;;;20.40;99.90;;;;;;5010858;28;20065;-75
2022/05/22 02:16:17;;;;;;;10.88;6.00;;;20.30;99.90;;;;;;5010676;28;20502;-81
2022/05/22 02:18:44;;;;;;;10.77;5.78;;;20.20;99.90;;;;;;5010993;28;20061;-74
2022/05/22 02:21:12;;;;;;;15.40;5.88;;;20.20;99.90;;;;;;5011081;28;20092;-82
2022/05/22 02:23:39;;;;;;;9.40;5.40;;;20.20;99.90;;;;;;5011209;28;20057;-76
2022/05/22 02:26:10;;;;;;;12.02;5.22;;;20.30;99.90;;;;;;5011187;28;20096;-76
2022/05/22 02:28:41;;;;;;;8.77;4.93;;;20.10;99.90;;;;;;5014394;28;20036;-74
2022/05/22 02:31:08;;;;;;;12.50;6.32;;;20.20;99.90;;;;;;5014208;28;20041;-77
2022/05/22 02:33:36;;;;;;;14.52;6.50;;;19.90;99.90;;;;;;5014329;28;20129;-77
2022/05/22 02:36:06;;;;;;;13.57;6.00;;;20.00;99.90;;;;;;5014355;28;20495;-76
2022/05/22 02:38:34;;;;;;;;;;;20.00;99.90;;;;;;5013362;28;20049;-76
2022/05/22 02:41:16;;;;;;;9.73;5.25;;;20.10;99.90;;;;;;5014220;28;19928;-78
2022/05/22 02:43:44;;;;;;;11.50;6.07;;;20.10;99.90;;;;;;5013010;28;20496;-76
2022/05/22 02:46:18;;;;;;;11.30;5.50;;;19.90;99.90;;;;;;5014390;28;20125;-78
2022/05/22 02:48:46;;;;;;;12.68;5.53;;;19.80;99.90;;;;;;5012422;28;20046;-75
2022/05/22 02:51:18;;;;;;;11.20;5.55;;;19.70;99.90;;;;;;5014111;28;20050;-77
2022/05/22 02:53:46;;;;;;;8.60;5.65;;;19.60;99.90;;;;;;5013961;28;20450;-76
2022/05/22 02:56:19;;;;;;;11.95;6.43;;;19.60;99.90;;;;;;4996174;28;20054;-79
2022/05/22 02:58:47;;;;;;;13.55;6.20;;;19.60;99.90;;;;;;5013516;28;20065;-76
2022/05/22 03:01:14;;;;;;;10.07;5.65;;;19.70;99.90;;;;;;5014137;28;20070;-78
2022/05/22 03:03:44;;;;;;;11.25;6.53;;;19.80;99.90;;;;;;5014129;28;20045;-75
2022/05/22 03:08:57;;;;;;;14.80;6.88;;;19.80;99.90;;;;;;5013778;28;20046;-76
2022/05/22 03:11:27;;;;;;;21.98;8.27;;;19.60;99.90;;;;;;5028744;28;20038;-80
2022/05/22 03:13:54;;;;;;;12.25;6.45;;;19.70;99.90;;;;;;5013747;28;20042;-79
2022/05/22 03:16:21;;;;;;;8.52;6.28;;;19.60;99.90;;;;;;5013574;28;20471;-77
2022/05/22 03:18:49;;;;;;;12.77;6.40;;;19.70;99.90;;;;;;5013765;28;20535;-77
2022/05/22 03:21:16;;;;;;;12.95;6.50;;;19.70;99.90;;;;;;5012184;28;20050;-80
2022/05/22 03:23:44;;;;;;;8.52;5.60;;;19.70;99.90;;;;;;5013597;28;20045;-78
2022/05/22 03:26:11;;;;;;;12.18;5.68;;;19.70;99.90;;;;;;5011815;28;20520;-78
2022/05/22 03:28:38;;;;;;;11.60;5.95;;;19.90;99.90;;;;;;5013532;28;20491;-73
2022/05/22 03:31:08;;;;;;;11.48;6.40;;;20.00;99.90;;;;;;5013386;28;20077;-81
2022/05/22 03:33:36;;;;;;;11.90;6.35;;;19.90;99.90;;;;;;4996526;28;20137;-76
2022/05/22 03:36:05;;;;;;;11.35;6.20;;;19.60;99.90;;;;;;4995666;28;20077;-76
2022/05/22 03:38:32;;;;;;;12.43;5.97;;;19.60;99.90;;;;;;5012784;28;20041;-79
2022/05/22 03:41:00;;;;;;;16.60;7.03;;;19.50;99.90;;;;;;5012715;28;20111;-81
2022/05/22 03:43:27;;;;;;;10.70;5.82;;;19.60;99.90;;;;;;5013365;28;20054;-80
2022/05/22 03:45:54;;;;;;;11.45;6.65;;;19.30;99.90;;;;;;5020807;28;20038;-78
2022/05/22 03:48:22;;;;;;;13.55;6.30;;;19.30;99.90;;;;;;5013908;28;20045;-79
2022/05/22 03:51:09;;;;;;;11.25;6.40;;;19.20;99.90;;;;;;5022425;28;20053;-77
2022/05/22 03:53:37;;;;;;;12.70;6.55;;;19.30;99.90;;;;;;5031437;28;20092;-77
2022/05/22 03:56:15;;;;;;;15.77;6.85;;;19.40;99.90;;;;;;5031833;28;20446;-81
2022/05/22 03:58:43;;;;;;;9.82;6.38;;;19.20;99.90;;;;;;5032937;28;20041;-80
2022/05/22 04:01:11;;;;;;;13.35;6.18;;;19.20;99.90;;;;;;5032955;28;20072;-81
2022/05/22 04:03:41;;;;;;;10.77;6.20;;;19.20;99.90;;;;;;5032623;28;20422;-82
2022/05/22 04:06:11;;;;;;;14.77;6.90;;;19.30;99.90;;;;;;5015544;28;20050;-78
2022/05/22 04:08:39;;;;;;;10.27;5.97;;;19.30;99.90;;;;;;5004110;28;20443;-76
2022/05/22 04:11:12;;;;;;;10.18;7.28;;;19.20;99.90;;;;;;5011185;28;20042;-77
2022/05/22 04:13:40;;;;;;;11.18;6.20;;;19.10;99.90;;;;;;5011156;28;20062;-77
2022/05/22 04:16:10;;;;;;;13.45;6.53;;;19.20;99.90;;;;;;5011061;28;20526;-77
2022/05/22 04:18:41;;;;;;;11.77;6.00;;;19.20;99.90;;;;;;5011554;28;20053;-81
2022/05/22 04:21:11;;;;;;;10.23;6.07;;;19.40;99.90;;;;;;4995608;28;20049;-81
2022/05/22 04:26:38;;;;;;;10.77;6.00;;;19.50;99.90;;;;;;5010944;28;20065;-76
2022/05/22 04:29:05;;;;;;;11.25;6.55;;;19.30;99.90;;;;;;5027819;28;20056;-77
2022/05/22 04:31:33;;;;;;;10.98;6.65;;;19.50;99.90;;;;;;5010685;28;20052;-75
2022/05/22 04:34:01;;;;;;;8.80;6.05;;;19.70;99.90;;;;;;4995031;28;20077;-77
2022/05/22 04:36:28;;;;;;;19.08;8.38;;;19.80;99.90;;;;;;5028794;28;20430;-75
2022/05/22 04:38:55;;;;;;;12.02;6.65;;;19.70;99.90;;;;;;5030444;28;20095;-78
2022/05/22 04:41:23;;;;;;;12.80;6.25;;;19.70;99.90;;;;;;5025433;28;20120;-78
2022/05/22 04:43:50;;;;;;;10.50;6.35;;;19.60;99.90;;;;;;5030311;28;20060;-76
2022/05/22 04:46:18;;;;;;;13.02;6.45;;;19.40;99.90;;;;;;5030711;28;20049;-77
2022/05/22 04:48:48;;;;;;;12.15;6.28;;;19.40;99.90;;;;;;5029587;28;20038;-78
2022/05/22 04:51:15;;;;;;;10.60;6.28;;;19.40;99.90;;;;;;5030114;28;20038;-74
2022/05/22 04:53:44;;;;;;;11.20;6.43;;;19.60;99.90;;;;;;5018499;28;20045;-78
2022/05/22 04:56:12;;;;;;;12.73;7.75;;;19.80;99.90;;;;;;4999446;28;20458;-75
2022/05/22 04:58:39;;;;;;;12.70;6.68;;;19.90;99.90;;;;;;5029995;28;20471;-77
2022/05/22 05:01:08;;;;;;;8.40;6.20;;;20.10;99.90;;;;;;5030597;28;20052;-78
2022/05/22 05:03:36;;;;;;;9.13;5.80;;;20.10;99.90;;;;;;5020694;28;20053;-78
2022/05/22 05:06:03;;;;;;;14.88;6.22;;;20.20;99.90;;;;;;5004376;28;20099;-76
2022/05/22 05:08:32;;;;;;;11.23;6.22;;;20.20;99.90;;;;;;5028155;28;20491;-80
2022/05/22 05:11:04;;;;;;;11.90;7.10;;;20.30;99.90;;;;;;5030077;28;20129;-78
2022/05/22 05:13:34;;;;;;;10.77;6.40;;;20.40;99.90;;;;;;5025367;28;20112;-75
2022/05/22 05:16:14;;;;;;;11.77;6.50;;;20.50;99.90;;;;;;5036932;28;20077;-76
2022/05/22 05:18:50;;;;;;;10.85;6.70;;;20.40;99.90;;;;;;5012684;28;20065;-75
2022/05/22 05:21:18;;;;;;;10.70;6.25;;;20.40;99.90;;;;;;5028187;28;20064;-80
2022/05/22 05:23:46;;;;;;;14.27;6.35;;;20.60;99.90;;;;;;5012936;28;20046;-75
2022/05/22 05:26:14;;;;;;;9.98;6.45;;;20.60;99.90;;;;;;5015954;28;20096;-83
2022/05/22 05:28:41;;;;;;;9.15;6.20;;;20.70;99.90;;;;;;5037345;28;20049;-76
2022/05/22 05:31:11;;;;;;;10.77;6.28;;;20.60;99.90;;;;;;5036967;28;20069;-81
2022/05/22 05:33:39;;;;;;;;;;;20.40;99.90;;;;;;5030701;28;20069;-77
2022/05/22 05:36:11;;;;;;;19.15;7.55;;;20.30;99.90;;;;;;5029652;28;19951;-82
2022/05/22 05:38:41;;;;;;;16.77;8.52;;;20.40;99.90;;;;;;5020531;28;20045;-75
2022/05/22 05:41:24;;;;;;;16.33;8.07;;;20.10;99.90;;;;;;5020668;28;20038;-79
2022/05/22 05:43:52;;;;;;;16.63;9.02;;;20.30;99.90;;;;;;5015261;28;20038;-77
2022/05/22 05:46:23;;;;;;;14.95;8.68;;;20.50;99.90;;;;;;5036996;28;20042;-80
2022/05/22 05:48:51;;;;;;;16.38;8.13;;;20.80;99.90;;;;;;5020215;28;20061;-75
2022/05/22 05:51:19;;;;;;;14.73;8.25;;;21.00;99.90;;;;;;5020646;28;20128;-76
2022/05/22 05:53:46;;;;;;;14.68;7.78;;;21.00;99.90;;;;;;5036542;28;20053;-77
2022/05/22 05:56:13;;;;;;;12.95;7.55;;;21.10;99.90;;;;;;5032133;28;20443;-79
2022/05/22 05:58:52;;;;;;;11.05;6.90;;;21.00;99.90;;;;;;5020417;28;20099;-76
2022/05/22 06:01:20;;;;;;;11.35;7.45;;;21.00;99.90;;;;;;5032647;28;20401;-77
2022/05/22 06:03:48;;;;;;;9.82;6.18;;;21.00;99.90;;;;;;5015404;28;20065;-75
2022/05/22 06:06:16;;;;;;;14.65;7.22;;;21.10;99.90;;;;;;5024386;28;20042;-81
2022/05/22 06:08:44;;;;;;;14.40;7.65;;;21.10;99.90;;;;;;5026421;28;20038;-76
2022/05/22 06:11:12;;;;;;;17.30;7.93;;;21.00;99.90;;;;;;5021750;28;20038;-80
2022/05/22 06:13:42;;;;;;;14.18;7.60;;;21.00;99.90;;;;;;5033627;28;20092;-76
2022/05/22 06:16:09;;;;;;;11.65;6.85;;;21.10;99.90;;;;;;5028232;28;20037;-76
2022/05/22 06:18:37;;;;;;;10.63;7.38;;;21.10;99.90;;;;;;5032963;28;20441;-75
2022/05/22 06:21:17;;;;;;;12.85;7.85;;;21.20;99.90;;;;;;5033292;28;20052;-77
2022/05/22 06:23:45;;;;;;;11.73;7.38;;;21.30;99.90;;;;;;5033452;28;20064;-78
2022/05/22 06:26:15;;;;;;;15.05;7.30;;;21.30;99.90;;;;;;5033152;28;20045;-76
2022/05/22 06:28:42;;;;;;;16.63;7.68;;;21.40;99.90;;;;;;5031707;28;20041;-76
2022/05/22 06:31:11;;;;;;;14.52;7.28;;;21.50;99.90;;;;;;5041786;28;20076;-75
2022/05/22 06:33:39;;;;;;;11.15;7.60;;;21.50;99.90;;;;;;5032385;28;20065;-76
2022/05/22 06:36:12;;;;;;;13.48;7.47;;;21.50;99.90;;;;;;5032853;28;20414;-79
2022/05/22 06:41:28;;;;;;;10.18;6.22;;;21.70;99.90;;;;;;5031736;28;20029;-75
2022/05/22 06:43:56;;;;;;;12.80;7.28;;;21.80;99.90;;;;;;5032427;28;20068;-73
2022/05/22 06:46:30;;;;;;;15.20;7.05;;;21.80;99.90;;;;;;5032404;28;20041;-72
2022/05/22 06:48:59;;;;;;;16.13;9.98;;;21.80;99.90;;;;;;5019341;28;20454;-77
2022/05/22 06:51:27;;;;;;;28.27;20.83;;;21.90;99.90;;;;;;5016269;28;20107;-78
2022/05/22 06:53:54;;;;;;;27.55;17.85;;;21.80;99.90;;;;;;5033832;28;20454;-80
2022/05/22 06:56:21;;;;;;;17.15;8.93;;;21.80;99.90;;;;;;5027886;28;20050;-76
2022/05/22 06:58:48;;;;;;;27.88;18.90;;;21.90;99.90;;;;;;5032588;28;20510;-79
2022/05/22 07:01:18;;;;;;;30.27;18.80;;;22.00;99.90;;;;;;5028429;28;20040;-74
2022/05/22 07:03:45;;;;;;;38.00;22.58;;;22.10;99.90;;;;;;5022947;28;20479;-74
2022/05/22 07:06:16;;;;;;;14.82;9.07;;;22.30;99.90;;;;;;5032974;28;20041;-76
2022/05/22 07:08:43;;;;;;;15.52;8.07;;;22.40;99.90;;;;;;5031180;28;20044;-80
2022/05/22 07:13:56;;;;;;;12.00;6.28;;;22.60;99.90;;;;;;5026474;28;20099;-79
2022/05/22 07:16:24;;;;;;;15.98;7.75;;;22.70;99.90;;;;;;5023741;28;20127;-80
2022/05/22 07:18:52;;;;;;;12.68;7.03;;;22.80;99.90;;;;;;5040137;28;20087;-73
2022/05/22 07:21:20;;;;;;;13.88;6.90;;;23.00;99.90;;;;;;5031487;28;20041;-76
2022/05/22 07:23:49;;;;;;;12.23;6.63;;;22.90;99.90;;;;;;5039877;28;20387;-82
2022/05/22 07:26:21;;;;;;;12.48;7.03;;;22.90;99.90;;;;;;5032361;28;20140;-77
2022/05/22 07:28:51;;;;;;;11.95;6.70;;;23.00;99.90;;;;;;5033253;28;20803;-79
2022/05/22 07:31:23;;;;;;;19.20;6.05;;;23.10;99.90;;;;;;5026930;28;20034;-80
2022/05/22 07:33:51;;;;;;;13.55;7.05;;;23.00;99.90;;;;;;5013059;28;20077;-81
2022/05/22 07:36:22;;;;;;;13.95;7.13;;;23.10;99.90;;;;;;5012475;28;20052;-77
2022/05/22 07:38:49;;;;;;;39.83;24.95;;;23.10;99.90;;;;;;5013285;28;20222;-80
2022/05/22 07:41:17;;;;;;;23.70;15.50;;;23.40;99.90;;;;;;5013168;28;20120;-80
2022/05/22 07:43:44;;;;;;;9.95;5.80;;;23.40;99.90;;;;;;5012880;28;20093;-76
2022/05/22 07:46:13;;;;;;;8.77;4.70;;;23.10;99.90;;;;;;5028301;28;20041;-82
2022/05/22 07:48:42;;;;;;;9.73;4.07;;;22.90;99.90;;;;;;5012476;28;20058;-76
2022/05/22 07:51:12;;;;;;;8.27;4.88;;;23.00;99.60;;;;;;5011979;28;20799;-81
2022/05/22 07:53:42;;;;;;;8.05;4.53;;;23.00;99.90;;;;;;5012545;28;20046;-82
2022/05/22 07:56:11;;;;;;;13.18;4.30;;;22.90;99.90;;;;;;5012814;28;20034;-82
2022/05/22 07:58:42;;;;;;;8.10;4.22;;;22.80;99.30;;;;;;5028261;28;20086;-82
2022/05/22 08:01:09;;;;;;;7.45;4.05;;;22.90;99.30;;;;;;5011613;28;20046;-78
2022/05/22 08:03:40;;;;;;;9.40;4.50;;;22.90;99.10;;;;;;5011644;28;20058;-80
2022/05/22 08:06:07;;;;;;;;;;;23.00;99.20;;;;;;5014746;28;20049;-80
2022/05/22 08:08:36;;;;;;;6.68;4.25;;;23.20;98.80;;;;;;5006960;28;19948;-80
2022/05/22 08:11:10;;;;;;;6.32;3.42;;;23.20;97.20;;;;;;5011670;28;20511;-77
2022/05/22 08:13:39;;;;;;;6.13;3.38;;;23.20;97.10;;;;;;5011742;28;20048;-75
2022/05/22 08:16:07;;;;;;;7.47;3.55;;;23.30;96.10;;;;;;5011340;28;20042;-77
2022/05/22 08:18:34;;;;;;;6.57;3.35;;;23.30;95.20;;;;;;5011617;28;20180;-81
2022/05/22 08:21:02;;;;;;;7.40;4.13;;;23.40;95.70;;;;;;5012710;28;20421;-77
2022/05/22 08:23:29;;;;;;;6.45;3.80;;;23.50;95.50;;;;;;5011867;28;20458;-81
2022/05/22 08:25:57;;;;;;;9.80;3.40;;;23.60;95.50;;;;;;5012388;28;20121;-76
2022/05/22 08:28:24;;;;;;;10.30;4.38;;;23.70;95.90;;;;;;5011030;28;20103;-84
2022/05/22 08:30:51;;;;;;;19.30;12.98;;;23.80;95.10;;;;;;5012342;28;20042;-79
2022/05/22 08:33:19;;;;;;;33.72;21.13;;;23.90;95.60;;;;;;5012119;28;20049;-76
2022/05/22 08:35:46;;;;;;;10.07;6.03;;;24.00;95.90;;;;;;5012363;28;20038;-77
2022/05/22 08:38:14;;;;;;;8.50;4.15;;;23.80;95.00;;;;;;5010690;28;20046;-76
2022/05/22 08:40:50;;;;;;;7.63;3.90;;;23.60;95.60;;;;;;5012657;28;20399;-76
2022/05/22 08:43:36;;;;;;;8.77;4.00;;;23.70;95.50;;;;;;5010846;28;20499;-82
2022/05/22 08:46:13;;;;;;;11.30;5.28;;;23.80;95.50;;;;;;5012342;28;20057;-74
2022/05/22 08:48:48;;;;;;;9.40;4.90;;;23.90;96.00;;;;;;5011339;28;20054;-76
2022/05/22 08:51:37;;;;;;;7.03;3.67;;;24.10;96.40;;;;;;5012660;28;20093;-76
2022/05/22 08:54:42;;;;;;;7.70;4.82;;;23.80;95.80;;;;;;5012063;28;20057;-81
2022/05/22 09:00:41;;;;;;;12.02;5.93;;;24.00;95.00;;;;;;5011726;28;20122;-76
2022/05/22 09:03:24;;;;;;;8.70;4.22;;;24.10;93.30;;;;;;4994646;28;20578;-80
2022/05/22 09:05:59;;;;;;;8.00;4.03;;;24.10;93.10;;;;;;5012138;28;20038;-82
2022/05/22 09:08:29;;;;;;;7.18;3.70;;;24.30;92.40;;;;;;4993892;28;20076;-83
2022/05/22 09:11:18;;;;;;;6.80;3.70;;;24.30;92.10;;;;;;5036308;28;20050;-79
2022/05/22 09:14:10;;;;;;;7.07;4.13;;;24.40;92.50;;;;;;5031729;28;20041;-75
2022/05/22 09:16:54;;;;;;;8.52;3.95;;;24.70;91.40;;;;;;5008866;28;20050;-81
2022/05/22 09:19:45;;;;;;;7.25;3.60;;;25.00;91.20;;;;;;5030820;28;20594;-77
2022/05/22 09:22:21;;;;;;;11.32;4.15;;;25.10;89.00;;;;;;5029075;28;20053;-81
2022/05/22 09:24:52;;;;;;;6.35;3.60;;;25.30;89.60;;;;;;5013144;28;20138;-80
2022/05/22 09:27:33;;;;;;;6.20;3.50;;;25.60;90.10;;;;;;5021684;28;20475;-79
2022/05/22 09:30:33;;;;;;;8.30;3.80;;;25.80;87.50;;;;;;5032169;28;20079;-87
2022/05/22 09:33:39;;;;;;;6.57;2.92;;;25.70;85.30;;;;;;5031364;28;20498;-80
2022/05/22 09:36:36;;;;;;;7.00;3.80;;;25.80;86.00;;;;;;5032571;28;20085;-83
2022/05/22 09:39:50;;;;;;;8.00;3.38;;;25.90;83.30;;;;;;5036090;28;20536;-83
2022/05/22 09:42:32;;;;;;;8.63;4.78;;;26.20;81.80;;;;;;5018388;28;20160;-83
2022/05/22 09:45:11;;;;;;;6.50;3.45;;;26.40;82.40;;;;;;5031837;28;20106;-82
2022/05/22 09:47:52;;;;;;;6.72;3.28;;;26.50;79.50;;;;;;5014524;28;20470;-78
2022/05/22 09:50:48;;;;;;;9.05;3.90;;;26.50;79.70;;;;;;5024748;28;20457;-78
2022/05/22 09:53:47;;;;;;;10.73;5.35;;;26.50;80.00;;;;;;5013990;28;20117;-81
2022/05/22 09:56:55;;;;;;;24.13;16.33;;;26.80;79.80;;;;;;5006662;28;20050;-79
2022/05/22 09:59:49;;;;;;;16.83;8.68;;;26.60;74.00;;;;;;5015312;28;20042;-81
2022/05/22 10:02:41;;;;;;;7.18;3.72;;;26.40;74.00;;;;;;4996177;28;20111;-81
2022/05/22 10:05:45;;;;;;;8.10;3.72;;;26.30;74.40;;;;;;5018640;28;20048;-81
2022/05/22 10:09:04;;;;;;;9.77;4.40;;;26.40;74.00;;;;;;5015632;28;20107;-77
2022/05/22 10:12:06;;;;;;;5.78;2.67;;;26.50;74.40;;;;;;4992569;28;20133;-81
2022/05/22 10:15:16;;;;;;;11.55;3.70;;;26.70;72.70;;;;;;5013671;28;20054;-78
2022/05/22 10:18:02;;;;;;;;;;;27.00;73.00;;;;;;5014207;28;20069;-78
2022/05/22 10:20:38;;;;;;;11.43;3.35;;;26.90;72.80;;;;;;5012205;28;19925;-81
2022/05/22 10:23:17;;;;;;;9.40;3.35;;;27.00;73.90;;;;;;5010790;28;20041;-81
2022/05/22 10:26:05;;;;;;;9.95;4.35;;;27.30;73.10;;;;;;5011511;28;20650;-79
2022/05/22 10:28:40;;;;;;;8.48;4.00;;;27.10;73.60;;;;;;5011788;28;20096;-80
2022/05/22 10:31:18;;;;;;;8.70;3.88;;;26.70;72.60;;;;;;5013139;28;20092;-81
2022/05/22 10:34:01;;;;;;;5.80;3.33;;;26.30;74.60;;;;;;5013200;28;20057;-81
2022/05/22 10:36:36;;;;;;;6.63;4.18;;;25.90;76.60;;;;;;5014365;28;20072;-81
2022/05/22 10:39:08;;;;;;;9.27;3.70;;;25.80;76.80;;;;;;5014898;28;20141;-77
2022/05/22 10:44:47;;;;;;;9.45;3.38;;;26.40;75.20;;;;;;5014548;28;20041;-79
2022/05/22 10:47:26;;;;;;;6.03;3.25;;;26.90;73.30;;;;;;5013157;28;20058;-82
2022/05/22 10:49:54;;;;;;;8.65;3.42;;;27.20;72.30;;;;;;5014741;28;20121;-85
2022/05/22 10:52:30;;;;;;;7.63;3.40;;;27.20;71.80;;;;;;5014332;28;20100;-78
2022/05/22 10:54:58;;;;;;;8.75;3.40;;;27.20;71.10;;;;;;5013360;28;20108;-80
2022/05/22 10:57:29;;;;;;;8.30;3.70;;;27.40;71.60;;;;;;5014368;28;20373;-82
2022/05/22 10:59:58;;;;;;;7.50;3.40;;;27.30;71.20;;;;;;5014299;28;20042;-79
2022/05/22 11:02:30;;;;;;;7.38;2.95;;;27.30;71.70;;;;;;5013930;28;20046;-79
2022/05/22 11:04:59;;;;;;;7.57;3.20;;;27.40;72.20;;;;;;5013722;28;20038;-79
2022/05/22 11:07:30;;;;;;;5.47;2.70;;;27.10;72.40;;;;;;5014173;28;20100;-75
2022/05/22 11:10:29;;;;;;;9.10;3.10;;;27.30;73.10;;;;;;5014316;28;20041;-79
2022/05/22 11:13:03;;;;;;;9.82;3.50;;;27.00;72.10;;;;;;5006035;28;20121;-78
2022/05/22 11:15:33;;;;;;;8.90;3.50;;;26.80;73.60;;;;;;4997415;28;20042;-81
2022/05/22 11:18:09;;;;;;;5.53;3.08;;;26.60;74.10;;;;;;5012726;28;20496;-81
2022/05/22 11:20:59;;;;;;;7.80;3.17;;;26.50;75.40;;;;;;5013654;28;20116;-79
2022/05/22 11:23:29;;;;;;;5.82;2.83;;;26.60;76.70;;;;;;5006560;28;20053;-78
2022/05/22 11:26:09;;;;;;;5.60;3.13;;;26.50;76.70;;;;;;5013729;28;20100;-77
2022/05/22 11:28:54;;;;;;;6.03;3.17;;;26.60;77.40;;;;;;5013300;28;20071;-81
2022/05/22 11:32:00;;;;;;;5.53;3.10;;;26.50;76.90;;;;;;5013668;28;20120;-81
2022/05/22 11:34:54;;;;;;;6.25;2.80;;;26.50;76.40;;;;;;5013824;28;20042;-81
2022/05/22 11:37:27;;;;;;;5.63;3.03;;;26.40;77.30;;;;;;5013201;28;20096;-81
2022/05/22 11:40:32;;;;;;;6.93;3.70;;;26.50;77.20;;;;;;5029039;28;20088;-80
2022/05/22 11:43:15;;;;;;;5.82;3.13;;;26.30;76.70;;;;;;5013161;28;20065;-82
2022/05/22 11:45:48;;;;;;;8.02;3.08;;;26.30;78.10;;;;;;5013058;28;20052;-79
2022/05/22 11:48:33;;;;;;;7.75;3.20;;;26.30;77.40;;;;;;5028158;28;20049;-76
2022/05/22 11:51:31;;;;;;;7.90;3.30;;;26.40;79.20;;;;;;5011988;28;20125;-75
2022/05/22 11:54:12;;;;;;;15.05;3.60;;;26.40;78.90;;;;;;5011740;28;20069;-77
2022/05/22 11:57:04;;;;;;;6.40;3.33;;;26.80;77.80;;;;;;5013086;28;20096;-83
2022/05/22 11:59:56;;;;;;;7.03;3.63;;;26.80;77.30;;;;;;5011600;28;20049;-81
2022/05/22 12:02:33;;;;;;;7.00;3.22;;;27.00;76.90;;;;;;5012559;28;20065;-80
2022/05/22 12:05:31;;;;;;;7.03;2.65;;;27.40;77.00;;;;;;5013195;28;20104;-77
2022/05/22 12:08:20;;;;;;;8.77;2.80;;;27.50;72.40;;;;;;5013047;28;20069;-81
2022/05/22 12:11:27;;;;;;;5.80;2.95;;;27.50;73.00;;;;;;5013158;28;20050;-81
2022/05/22 12:14:33;;;;;;;5.68;3.00;;;27.80;71.80;;;;;;5012563;28;20069;-80
2022/05/22 12:17:16;;;;;;;8.30;3.00;;;28.10;71.70;;;;;;5011334;28;20060;-81
2022/05/22 12:19:52;;;;;;;5.60;3.10;;;27.80;71.20;;;;;;5011838;28;20050;-81
2022/05/22 12:25:16;;;;;;;6.00;3.00;;;26.80;71.70;;;;;;5012817;28;20046;-82
2022/05/22 12:27:45;;;;;;;8.02;2.72;;;26.60;72.50;;;;;;5012156;28;20041;-80
2022/05/22 12:30:37;;;;;;;5.30;2.72;;;26.60;73.30;;;;;;5012560;28;20038;-82
2022/05/22 12:33:09;;;;;;;5.05;2.83;;;26.60;73.70;;;;;;5027685;28;20050;-81
2022/05/22 12:35:38;;;;;;;12.07;3.13;;;26.40;74.20;;;;;;5012489;28;20076;-81
2022/05/22 12:38:09;;;;;;;5.95;3.25;;;26.30;74.60;;;;;;5012640;28;20157;-80
2022/05/22 12:41:00;;;;;;;5.43;3.00;;;26.30;75.20;;;;;;5011469;28;20088;-81
2022/05/22 12:43:28;;;;;;;9.20;3.17;;;26.30;75.20;;;;;;5012382;28;20092;-76
2022/05/22 12:46:02;;;;;;;6.13;3.00;;;25.90;78.20;;;;;;5011189;28;20368;-77
2022/05/22 12:48:32;;;;;;;5.95;2.80;;;25.90;77.80;;;;;;5010631;28;20459;-82
2022/05/22 12:51:18;;;;;;;6.72;3.08;;;26.10;76.60;;;;;;5012024;28;20444;-82
2022/05/22 12:53:48;;;;;;;8.52;3.40;;;26.10;76.90;;;;;;5012215;28;20092;-76
2022/05/22 12:56:24;;;;;;;4.60;2.70;;;25.80;79.50;;;;;;5012223;28;20049;-80
2022/05/22 12:59:05;;;;;;;13.05;3.30;;;25.70;80.70;;;;;;5010705;28;20388;-79
2022/05/22 13:01:37;;;;;;;6.05;3.45;;;25.50;81.10;;;;;;5011031;28;20053;-81
2022/05/22 13:04:20;;;;;;;9.45;3.20;;;25.50;80.20;;;;;;5011530;28;20398;-78
2022/05/22 13:07:11;;;;;;;7.25;3.20;;;25.40;81.40;;;;;;5011855;28;20065;-80
2022/05/22 13:09:51;;;;;;;7.63;3.15;;;25.40;82.20;;;;;;5027009;28;20447;-79
2022/05/22 13:12:18;;;;;;;7.80;2.95;;;25.60;79.90;;;;;;5011808;28;20060;-82
2022/05/22 13:14:56;;;;;;;5.57;2.97;;;26.00;78.80;;;;;;5010580;28;20505;-78
2022/05/22 13:17:52;;;;;;;5.95;2.90;;;26.00;80.50;;;;;;5011794;28;20554;-83
2022/05/22 13:20:25;;;;;;;5.95;3.10;;;25.90;80.30;;;;;;5010452;28;20120;-82
2022/05/22 13:23:03;;;;;;;5.38;2.63;;;25.90;80.20;;;;;;5026928;28;20450;-77
2022/05/22 13:25:52;;;;;;;5.65;2.92;;;25.90;80.30;;;;;;5012096;28;20439;-81
2022/05/22 13:28:31;;;;;;;5.18;2.83;;;25.60;80.40;;;;;;4994707;28;20507;-77
2022/05/22 13:31:04;;;;;;;4.97;2.75;;;25.40;80.40;;;;;;5012006;28;20092;-76
2022/05/22 13:33:48;;;;;;;4.82;2.70;;;25.30;80.90;;;;;;5011789;28;20060;-80
2022/05/22 13:36:20;;;;;;;6.70;3.13;;;25.20;81.80;;;;;;5012086;28;20491;-79
2022/05/22 13:38:53;;;;;;;5.03;2.55;;;25.20;81.80;;;;;;5011475;28;20042;-80